Date,TemperatureHighF,TemperatureAvgF,TemperatureLowF,DewpointHighF,DewpointAvgF,DewpointLowF,HumidityHigh,HumidityAvg,HumidityLow,PressureMaxIn,PressureMinIn,WindSpeedMaxMPH,WindSpeedAvgMPH,GustSpeedMaxMPH,PrecipitationSumIn
2013-1-1,43,36,29,20,13,6,64,41,25,30.22,30.09,23,11,31,0.00
2013-1-2,50,42,35,10,8,4,33,25,19,30.16,30.01,26,16,36,0.00
2013-1-3,50,40,32,12,6,0,37,25,14,30.20,30.01,22,12,27,0.00
2013-1-4,48,38,30,6,4,1,32,24,16,30.26,30.13,14,8,20,0.00
2013-1-5,48,39,33,15,6,2,37,25,17,30.26,30.03,13,5,16,0.00
2013-1-6,45,39,34,34,29,9,91,71,24,30.06,29.89,24,10,33,0.01
2013-1-7,55,41,30,32,20,9,93,49,16,30.08,29.95,21,8,28,0.00
2013-1-8,61,49,40,28,21,14,49,33,25,30.11,29.94,17,8,20,0.00
2013-1-9,64,52,40,38,27,19,90,40,25,30.06,29.74,21,9,30,0.00
2013-1-10,42,36,29,40,27,13,100,71,42,30.01,29.69,22,9,31,0.12
2013-1-11,37,30,24,21,16,11,73,56,40,30.12,30.00,14,5,22,0.00
2013-1-12,38,29,22,18,12,7,74,52,29,30.12,29.97,10,3,16,0.00
2013-1-13,38,28,21,15,10,0,67,48,28,30.15,29.99,18,6,25,0.00
2013-1-14,35,29,18,1,-5,-9,34,24,15,30.33,30.09,21,14,28,0.00
2013-1-15,48,33,22,16,5,-6,44,30,22,30.44,30.26,26,12,36,0.00
2013-1-16,54,40,29,18,14,8,50,34,21,30.39,30.19,24,12,33,0.00
2013-1-17,57,50,40,13,9,6,29,20,13,30.26,30.07,28,16,35,0.00
2013-1-18,57,46,34,10,8,5,29,21,14,30.17,30.08,20,11,25,0.00
2013-1-19,59,47,36,11,7,4,28,20,12,30.20,30.08,18,12,26,0.00
2013-1-20,60,49,37,9,4,0,24,17,11,30.15,30.02,17,11,26,0.00
2013-1-21,62,52,40,8,2,-3,21,13,9,30.08,30.00,21,12,30,0.00
2013-1-22,60,49,38,7,3,-4,21,15,11,30.09,29.99,16,8,21,0.00
2013-1-23,61,54,47,38,15,5,61,23,14,30.05,29.92,14,6,20,0.00
2013-1-24,52,47,42,48,44,33,100,88,59,30.10,29.94,13,6,16,0.15
2013-1-25,47,46,44,47,46,44,100,100,100,30.09,29.89,12,7,17,0.10
2013-1-26,59,50,46,56,47,44,100,91,62,29.89,29.73,16,6,25,0.08
2013-1-27,50,40,32,45,37,24,100,88,65,29.94,29.76,14,5,25,0.18
2013-1-28,41,35,29,25,22,21,73,61,47,30.13,29.92,12,3,18,0.00
2013-1-29,54,40,28,29,26,21,75,57,34,30.16,30.02,17,4,20,0.00
2013-1-30,58,45,36,31,29,27,71,53,32,30.27,30.12,15,8,21,0.00
2013-1-31,62,50,41,32,28,26,60,45,27,30.18,30.06,17,8,24,0.00
2013-2-1,61,51,41,31,29,26,60,44,30,30.13,30.03,13,6,17,0.00
2013-2-2,59,51,46,43,31,27,90,49,30,30.17,30.06,13,5,17,0.03
2013-2-3,62,52,45,42,34,23,82,53,31,30.07,29.91,10,4,17,0.01
2013-2-4,64,50,43,30,23,17,53,35,17,30.05,29.87,12,4,15,0.00
2013-2-5,64,52,41,40,28,18,84,44,22,29.94,29.78,20,7,27,0.00
2013-2-6,59,46,35,38,26,15,93,52,23,30.00,29.83,9,2,14,0.00
2013-2-7,60,45,38,37,23,4,90,45,22,30.00,29.76,23,9,29,0.00
2013-2-8,41,34,25,32,28,23,100,79,52,29.84,29.70,23,9,35,0.00
2013-2-9,45,34,24,28,26,19,98,74,37,29.98,29.83,16,7,26,0.06
2013-2-10,46,36,28,33,27,15,93,72,31,29.99,29.88,15,6,18,0.00
2013-2-11,47,38,31,31,10,-1,95,36,15,30.13,29.95,24,8,28,0.00
2013-2-12,52,40,30,12,7,1,34,25,17,30.27,30.12,12,5,16,0.00
2013-2-13,60,46,36,20,16,11,51,31,16,30.19,30.05,17,7,21,0.00
2013-2-14,62,52,39,22,20,17,45,30,18,30.14,30.01,28,11,31,0.00
2013-2-15,62,55,43,20,16,10,38,22,15,30.15,30.04,24,16,35,0.00
2013-2-16,60,50,42,16,12,9,28,22,17,30.14,29.98,13,9,18,0.00
2013-2-17,63,63,63,13,13,13,14,14,14,29.78,29.78,9,9,17,0.00
2013-2-20,46,36,30,21,20,17,65,53,34,29.94,29.77,13,4,21,0.10
2013-2-21,46,36,30,26,21,12,74,56,25,30.03,29.87,9,2,18,0.00
2013-2-22,55,42,29,25,19,13,75,44,19,30.10,30.02,9,2,13,0.00
2013-2-23,58,46,35,28,24,17,70,43,26,30.03,29.77,20,10,27,0.00
2013-2-24,50,42,34,24,2,-6,60,20,11,30.11,29.91,29,18,39,0.00
2013-2-25,60,46,34,18,7,-3,37,21,10,30.15,29.93,15,6,23,0.00
2013-2-26,58,48,36,24,12,-2,50,26,12,30.05,29.90,22,11,31,0.00
2013-2-27,56,46,33,9,4,-1,27,18,12,30.23,30.05,20,9,24,0.00
2013-2-28,63,47,37,10,6,2,28,20,10,30.28,30.20,13,8,20,0.00
2013-3-4,66,54,43,44,36,28,95,54,25,29.95,29.86,13,5,17,0.00
2013-3-5,65,49,40,44,38,22,95,71,21,29.94,29.79,20,9,31,0.00
2013-3-6,52,43,37,41,38,34,100,82,55,29.99,29.82,26,14,33,0.00
2013-3-7,48,42,38,42,35,29,100,79,52,29.84,29.68,20,9,32,0.00
2013-3-8,42,37,31,35,32,29,100,84,61,29.91,29.64,21,8,29,0.22
2013-3-9,53,42,32,35,30,26,93,65,40,30.14,29.89,14,5,20,0.00
2013-3-10,61,51,38,26,15,9,57,26,13,30.23,30.08,28,9,31,0.00
2013-3-11,68,54,43,23,18,10,40,26,14,30.11,29.93,12,6,18,0.00
2013-3-12,74,58,46,23,19,14,36,23,13,30.02,29.90,14,5,20,0.00
2013-3-13,78,63,51,26,22,18,28,21,13,30.06,29.92,13,5,20,0.00
2013-3-14,82,67,52,33,26,21,32,22,14,30.00,29.87,14,5,22,0.00
2013-3-15,74,61,55,30,26,19,34,27,13,29.88,29.81,10,1,14,0.00
2013-3-17,75,63,47,33,22,11,46,25,9,29.84,29.73,17,5,22,0.00
2013-3-18,71,56,45,45,26,10,83,37,12,29.91,29.77,15,5,23,0.00
2013-3-19,73,59,48,38,29,20,61,33,17,29.95,29.83,16,5,28,0.00
2013-3-20,67,58,48,40,34,29,53,42,26,29.92,29.81,20,6,25,0.00
2013-3-21,70,56,43,39,28,9,74,38,13,29.82,29.65,17,5,25,0.00
2013-3-22,68,53,44,34,20,-1,58,31,7,29.83,29.64,14,7,25,0.00
2013-3-23,67,54,43,37,16,6,56,26,10,29.91,29.77,17,6,22,0.00
2013-3-24,68,56,44,31,14,0,40,20,12,29.93,29.78,12,3,17,0.00
2013-3-25,72,58,46,35,23,13,52,27,15,29.83,29.72,17,7,24,0.00
2013-3-26,69,57,46,41,32,24,71,41,19,29.79,29.71,20,9,25,0.00
2013-3-27,65,54,44,43,38,34,82,57,33,29.88,29.71,23,9,29,0.00
2013-3-28,69,56,43,45,38,28,93,57,24,29.92,29.83,22,7,28,0.00
2013-3-29,74,61,46,40,35,29,74,42,22,29.97,29.86,20,7,30,0.00
2013-3-30,71,60,50,40,34,27,60,39,24,29.92,29.84,22,11,32,0.00
2013-3-31,59,51,44,45,40,30,100,69,49,29.95,29.83,18,10,30,0.00
2013-4-1,58,48,39,45,40,33,100,75,42,30.02,29.91,18,10,25,0.00
2013-4-2,70,58,45,41,36,28,75,48,21,29.93,29.85,15,5,20,0.00
2013-4-3,77,61,47,39,31,28,55,35,18,29.94,29.83,16,6,21,0.00
2013-4-4,70,60,47,46,35,24,85,43,18,29.91,29.80,25,10,33,0.00
2013-4-5,65,55,44,45,38,22,87,56,27,29.93,29.83,22,7,28,0.00
2013-4-6,72,57,43,36,32,28,72,43,22,29.92,29.80,23,6,35,0.00
2013-4-7,72,56,45,41,31,20,66,40,15,29.84,29.65,15,5,24,0.00
2013-4-8,54,46,42,42,31,8,89,55,21,29.74,29.46,23,10,35,0.00
2013-4-9,63,50,38,31,18,5,61,33,10,29.95,29.74,16,5,24,0.00
2013-4-10,73,58,44,20,13,8,37,18,9,30.01,29.83,20,8,29,0.00
2013-4-11,73,61,50,41,31,19,65,34,21,29.87,29.57,22,8,26,0.00
2013-4-12,79,63,50,44,34,25,66,38,14,29.71,29.59,16,5,24,0.00
2013-4-13,72,59,47,48,38,26,96,50,19,29.67,29.60,26,12,33,0.00
2013-4-14,64,52,45,47,44,41,100,76,43,29.68,29.59,21,14,27,0.00
2013-4-15,57,49,41,44,39,34,96,70,48,29.69,29.60,29,17,36,0.00
2013-4-16,53,44,37,38,23,12,91,48,20,29.90,29.64,15,7,27,0.00
2013-4-17,58,47,35,22,14,4,54,30,12,30.07,29.89,20,5,27,0.00
2013-4-18,63,53,41,16,6,-1,34,16,9,30.16,30.04,26,12,32,0.00
2013-4-19,75,58,43,19,13,2,29,18,8,30.08,29.85,13,4,20,0.00
2013-4-20,79,65,51,31,24,17,33,22,11,29.87,29.74,21,6,31,0.00
2013-4-21,82,68,54,30,24,19,34,20,11,29.83,29.74,18,8,28,0.00
2013-4-22,78,64,52,40,32,21,59,32,17,29.79,29.66,23,10,30,0.00
2013-4-23,76,64,50,39,25,13,65,29,10,29.80,29.66,24,9,32,0.00
2013-4-24,74,57,46,48,38,26,100,56,17,29.76,29.66,21,9,28,0.00
2013-4-25,66,53,45,46,42,39,100,71,39,29.97,29.73,23,14,30,0.00
2013-4-26,81,63,45,43,36,20,80,44,11,30.00,29.91,18,7,26,0.00
2013-4-27,85,69,51,35,27,13,42,24,7,29.98,29.82,16,3,22,0.00
2013-4-28,89,72,58,39,30,20,37,23,9,29.84,29.65,20,5,26,0.00
2013-4-29,85,70,57,48,24,10,63,22,6,29.68,29.56,21,8,29,0.00
2013-4-30,74,60,49,49,45,37,97,60,30,29.69,29.54,24,12,32,0.00
2013-5-1,78,65,45,49,15,-10,100,31,4,29.93,29.66,30,14,37,0.00
2013-5-2,74,67,60,2,-3,-8,8,6,4,30.07,29.92,29,17,40,0.00
2013-5-3,84,69,52,16,4,-6,12,8,5,29.94,29.63,17,8,29,0.00
2013-5-4,78,65,48,46,23,4,93,26,9,29.63,29.49,22,11,33,0.00
2013-5-5,58,50,45,46,41,35,98,72,44,29.75,29.55,21,11,33,0.00
2013-5-6,57,49,45,47,42,40,96,77,56,29.84,29.70,22,10,33,0.12
2013-5-7,59,50,42,44,42,37,100,75,46,29.91,29.81,17,12,26,0.00
2013-5-8,64,52,42,45,42,38,97,71,43,29.95,29.88,20,11,27,0.00
2013-5-9,72,56,44,51,43,35,88,65,26,29.95,29.85,16,4,25,0.01
2013-5-10,82,64,51,47,42,30,82,49,16,29.97,29.83,16,4,23,0.00
2013-5-11,87,74,59,41,35,23,46,27,10,29.94,29.82,15,5,25,0.00
2013-5-12,90,77,64,40,35,26,38,23,12,29.92,29.76,16,4,22,0.00
2013-5-13,90,79,64,40,32,26,39,20,11,29.82,29.71,25,7,31,0.00
2013-5-14,84,72,59,37,24,7,40,19,6,29.77,29.67,26,10,37,0.00
2013-5-15,78,66,55,49,42,36,71,43,26,29.81,29.73,21,9,27,0.00
2013-5-16,72,60,51,50,44,34,89,57,29,29.77,29.69,20,12,27,0.00
2013-5-17,69,57,49,50,44,39,96,65,37,29.82,29.70,21,9,31,0.00
2013-5-18,76,64,49,42,30,19,66,30,15,29.86,29.77,21,8,27,0.00
2013-5-19,82,66,50,33,24,14,36,21,11,29.84,29.69,15,5,24,0.00
2013-5-20,82,70,56,41,27,16,39,23,10,29.85,29.72,22,8,30,0.00
2013-5-21,83,70,59,46,32,24,55,26,14,29.77,29.59,23,9,32,0.00
2013-5-22,73,60,48,49,42,31,83,54,27,29.63,29.55,22,11,33,0.00
2013-5-23,65,55,46,45,35,15,80,47,26,29.77,29.60,22,14,32,0.00
2013-5-24,62,48,42,42,31,25,81,53,26,29.81,29.73,15,7,20,0.00
2013-5-25,66,53,46,45,41,36,86,66,32,29.81,29.76,18,10,24,0.00
2013-5-26,71,63,46,48,43,36,87,53,30,29.85,29.80,21,13,29,0.00
2013-5-27,81,65,50,43,33,24,68,35,15,29.82,29.68,22,6,27,0.00
2013-5-28,74,63,52,44,38,26,66,41,23,29.69,29.61,24,9,31,0.00
2013-5-29,80,67,54,44,33,18,53,30,13,29.70,29.54,20,7,29,0.00
2013-5-30,87,72,57,48,32,18,53,26,10,29.69,29.58,17,6,27,0.00
2013-5-31,91,74,56,51,30,16,53,24,9,29.73,29.59,21,6,29,0.00
2013-6-1,95,80,65,45,32,24,44,19,8,29.70,29.53,15,6,23,0.00
2013-6-2,89,70,59,50,37,27,70,33,13,29.67,29.47,23,8,32,0.00
2013-6-3,77,63,50,54,48,45,100,62,33,29.69,29.51,22,13,28,0.00
2013-6-4,79,63,50,55,47,37,100,63,27,29.80,29.64,22,13,28,0.00
2013-6-5,83,69,54,51,43,27,75,42,20,29.78,29.68,21,11,29,0.00
2013-6-6,84,69,62,52,45,38,64,43,24,29.72,29.63,21,10,30,0.00
2013-6-7,96,77,59,52,44,33,62,35,12,29.68,29.54,17,6,24,0.00
2013-6-8,93,78,63,51,45,36,61,34,14,29.62,29.51,22,9,30,0.00
2013-6-9,91,72,57,50,36,4,73,36,4,29.68,29.60,20,11,29,0.00
2013-6-10,76,62,48,50,43,30,100,56,19,29.79,29.61,22,11,31,0.00
2013-6-11,88,72,56,50,39,25,61,34,10,29.77,29.69,18,9,25,0.00
2013-6-12,83,71,59,51,43,36,70,38,20,29.77,29.67,21,10,28,0.00
2013-6-13,84,70,54,49,40,28,71,39,15,29.80,29.69,24,8,28,0.00
2013-6-14,85,66,54,45,32,9,65,31,13,29.72,29.61,21,9,29,0.00
2013-6-15,79,66,56,46,39,34,67,38,21,29.80,29.63,21,11,29,0.00
2013-6-16,83,65,54,42,33,25,47,31,18,29.82,29.74,17,5,24,0.00
2013-6-17,88,73,57,37,30,23,31,21,13,29.79,29.66,18,5,25,0.00
2013-6-18,84,70,56,47,33,22,63,28,13,29.71,29.61,22,10,32,0.00
2013-6-19,83,66,52,45,25,4,71,30,6,29.72,29.62,17,5,24,0.00
2013-6-20,84,68,51,38,22,5,29,18,9,29.70,29.61,20,6,27,0.00
2013-6-21,82,68,54,45,32,18,53,27,13,29.70,29.64,20,8,30,0.00
2013-6-22,84,71,56,50,38,26,61,34,12,29.70,29.61,17,8,26,0.00
2013-6-23,77,65,55,51,47,40,84,55,30,29.65,29.59,22,11,30,0.00
2013-6-24,67,58,53,54,52,49,99,81,57,29.78,29.59,21,14,33,0.00
2013-6-25,83,68,53,56,52,48,100,63,31,29.81,29.74,18,9,24,0.00
2013-6-26,90,77,63,53,51,47,66,43,23,29.79,29.72,21,10,28,0.00
2013-6-27,93,80,66,53,50,45,56,37,22,29.83,29.77,18,10,27,0.00
2013-6-28,97,84,70,53,48,41,50,31,16,29.80,29.66,21,10,28,0.00
2013-6-29,102,87,71,48,44,38,41,24,12,29.70,29.55,18,5,25,0.00
2013-6-30,104,88,76,51,42,34,39,21,9,29.60,29.49,22,6,24,0.00
2013-7-1,93,81,69,52,47,40,49,32,18,29.70,29.55,22,11,28,0.00
2013-7-2,95,82,71,52,45,39,46,28,16,29.75,29.66,23,12,37,0.00
2013-7-3,94,81,72,51,46,42,46,30,19,29.70,29.57,21,10,27,0.00
2013-7-4,93,80,68,49,46,41,48,32,21,29.60,29.52,23,11,31,0.00
2013-7-5,89,76,65,51,46,39,51,34,24,29.62,29.51,23,11,29,0.00
2013-7-6,92,76,65,54,47,34,61,41,14,29.60,29.51,25,10,32,0.00
2013-7-7,92,79,65,54,39,27,62,28,10,29.66,29.54,21,10,30,0.00
2013-7-8,95,81,68,37,32,26,32,19,9,29.77,29.64,20,6,32,0.00
2013-7-9,97,84,70,45,33,26,27,17,10,29.82,29.72,18,6,29,0.00
2013-7-10,92,79,70,54,40,31,57,28,13,29.76,29.68,17,7,21,0.00
2013-7-11,77,69,62,57,52,41,75,56,31,29.80,29.65,17,9,25,0.00
2013-7-12,89,72,61,59,50,24,90,51,10,29.76,29.66,20,8,27,0.00
2013-7-13,92,77,62,44,38,31,47,26,14,29.76,29.67,18,5,25,0.00
2013-7-14,94,78,69,41,37,33,28,23,12,29.72,29.62,18,4,23,0.00
2013-7-15,88,77,66,39,33,28,30,21,14,29.65,29.59,23,8,33,0.00
2013-7-16,86,72,59,36,28,17,35,22,8,29.79,29.62,22,11,30,0.00
2013-7-17,90,73,62,31,28,19,29,19,10,29.84,29.75,18,9,25,0.00
2013-7-18,96,79,61,41,28,17,28,17,8,29.79,29.66,17,6,24,0.00
2013-7-19,93,75,66,48,32,28,42,21,12,29.69,29.60,17,5,26,0.00
2013-7-20,69,69,68,46,40,34,44,36,27,29.61,29.59,5,4,7,0.00
2013-7-21,83,74,64,58,55,53,81,54,42,29.75,29.64,15,10,20,0.01
2013-7-22,85,73,64,59,56,48,81,56,36,29.80,29.70,23,9,31,0.00
2013-7-23,86,74,63,58,54,48,72,51,31,29.81,29.72,20,8,27,0.00
2013-7-24,90,77,65,55,51,47,63,43,23,29.76,29.68,20,9,26,0.00
2013-7-25,92,80,69,53,48,43,50,34,19,29.78,29.68,21,9,30,0.00
2013-7-26,85,76,69,63,52,44,71,43,29,29.89,29.75,13,5,20,0.03
2013-7-27,91,77,65,55,52,47,66,44,24,29.83,29.66,21,7,28,0.00
2013-7-28,88,73,63,54,45,29,69,41,12,29.69,29.60,25,11,38,0.00
2013-7-29,86,72,60,45,38,30,46,29,17,29.81,29.65,20,13,27,0.00
2013-7-30,85,73,62,44,37,24,49,28,18,29.89,29.79,22,10,32,0.00
2013-7-31,85,72,60,47,42,37,52,36,19,29.87,29.77,21,10,28,0.00
2013-8-1,85,71,56,48,39,22,61,35,12,29.83,29.70,18,9,25,0.00
2013-8-2,82,70,55,50,41,30,61,38,17,29.75,29.69,23,10,31,0.00
2013-8-3,85,70,54,49,40,27,72,40,13,29.79,29.72,21,10,29,0.00
2013-8-4,86,72,56,44,32,17,49,25,10,29.81,29.72,21,10,31,0.00
2013-8-5,88,75,62,37,25,13,39,18,6,29.79,29.70,23,12,31,0.00
2013-8-6,86,72,59,40,25,8,43,19,7,29.81,29.70,23,12,32,0.00
2013-8-7,83,69,58,43,34,20,54,31,10,29.85,29.77,23,12,33,0.00
2013-8-8,84,69,58,46,34,14,61,33,8,29.79,29.71,18,10,30,0.00
2013-8-9,81,67,52,44,35,24,64,34,14,29.78,29.70,22,9,30,0.00
2013-8-10,80,67,54,48,41,34,61,40,22,29.82,29.75,21,9,26,0.00
2013-8-11,84,70,55,47,40,34,61,37,18,29.80,29.70,20,7,24,0.00
2013-8-12,87,73,59,50,42,34,55,34,19,29.77,29.70,20,6,28,0.00
2013-8-13,92,78,64,47,35,21,43,22,12,29.77,29.67,18,6,24,0.00
2013-8-14,94,79,66,38,26,19,23,15,9,29.73,29.63,14,4,25,0.00
2013-8-15,96,80,68,44,30,20,27,16,10,29.72,29.66,23,6,31,0.00
2013-8-16,95,80,66,48,41,33,34,26,17,29.74,29.69,22,9,31,0.00
2013-8-17,94,79,67,42,37,30,34,23,11,29.77,29.60,20,8,28,0.00
2013-8-18,97,79,66,54,41,33,44,27,16,29.69,29.58,15,4,23,0.00
2013-8-19,94,77,68,57,53,45,66,45,20,29.77,29.64,16,8,20,0.00
2013-8-20,92,78,65,47,40,27,48,29,13,29.71,29.63,18,7,26,0.00
2013-8-21,95,80,64,43,36,28,38,23,14,29.74,29.64,17,7,26,0.00
2013-8-22,93,81,67,40,35,29,29,19,14,29.74,29.61,22,8,31,0.00
2013-8-23,92,78,62,36,27,20,31,17,8,29.68,29.56,17,6,27,0.00
2013-8-24,91,75,59,35,27,14,36,19,6,29.68,29.58,18,6,26,0.00
2013-8-25,91,75,60,41,30,21,41,21,9,29.74,29.65,18,6,29,0.00
2013-8-26,84,72,63,61,50,26,76,49,22,29.79,29.67,13,4,20,0.00
2013-8-27,86,73,64,60,56,51,83,58,33,29.72,29.60,15,4,22,0.00
2013-8-28,92,77,64,55,52,48,68,45,25,29.73,29.61,16,6,25,0.00
2013-8-29,93,81,66,55,48,43,52,33,20,29.78,29.68,14,5,21,0.00
2013-8-30,90,79,69,62,52,42,71,42,27,29.80,29.71,18,6,24,0.00
2013-8-31,86,76,69,63,61,58,80,63,40,29.80,29.68,23,13,31,0.00
2013-9-1,87,75,67,63,59,51,84,62,30,29.75,29.66,21,11,31,0.00
2013-9-2,90,77,66,60,54,47,74,48,26,29.75,29.62,21,8,32,0.00
2013-9-3,92,79,68,53,49,45,50,36,24,29.73,29.63,18,7,30,0.00
2013-9-4,93,80,66,53,49,46,58,37,20,29.77,29.65,20,4,30,0.00
2013-9-5,95,81,68,53,47,42,54,31,18,29.73,29.64,20,6,29,0.00
2013-9-6,93,81,68,46,42,39,39,26,18,29.73,29.61,20,7,29,0.00
2013-9-7,92,80,68,44,38,34,34,23,15,29.70,29.61,17,6,26,0.00
2013-9-8,92,78,66,41,36,32,31,23,13,29.69,29.56,17,4,23,0.00
2013-9-9,91,77,67,47,43,36,44,31,18,29.62,29.51,18,6,26,0.00
2013-9-10,83,71,61,44,38,35,51,32,19,29.73,29.55,22,11,29,0.00
2013-9-11,82,71,59,48,43,40,57,39,23,29.81,29.71,18,11,26,0.00
2013-9-12,87,74,62,44,35,24,46,27,11,29.77,29.65,20,8,27,0.00
2013-9-13,91,76,63,45,38,28,37,26,16,29.68,29.50,16,3,22,0.00
2013-9-14,93,79,66,45,40,33,40,26,14,29.57,29.46,16,5,24,0.00
2013-9-15,95,80,66,41,35,28,38,21,11,29.60,29.51,21,6,28,0.00
2013-9-16,91,77,64,38,34,28,30,21,12,29.66,29.56,18,5,32,0.00
2013-9-17,86,70,56,41,31,18,47,25,9,29.63,29.50,21,8,31,0.00
2013-9-18,83,67,54,51,38,26,68,39,13,29.64,29.52,15,5,20,0.00
2013-9-19,87,72,60,47,33,23,44,26,10,29.69,29.56,18,6,22,0.00
2013-9-20,80,68,57,55,43,28,86,41,26,29.66,29.57,25,9,30,0.00
2013-9-21,72,58,51,53,48,40,100,73,32,29.73,29.60,25,12,37,0.00
2013-9-22,69,56,45,48,36,28,91,51,22,29.76,29.64,12,4,18,0.00
2013-9-23,81,65,52,39,33,26,57,34,15,29.83,29.72,16,7,21,0.00
2013-9-24,83,70,58,32,28,25,29,22,12,29.78,29.67,23,8,29,0.00
2013-9-25,73,61,51,52,42,31,89,53,22,29.60,29.49,23,15,33,0.00
2013-9-26,63,54,46,42,29,20,73,41,19,29.81,29.51,14,5,22,0.00
2013-9-27,68,57,45,26,20,15,42,25,13,29.93,29.78,21,8,27,0.00
2013-9-28,76,62,49,22,20,15,32,21,11,29.95,29.86,14,5,21,0.00
2013-9-29,82,67,53,28,19,10,28,17,9,29.95,29.81,15,5,21,0.00
2013-9-30,84,69,53,32,27,21,36,22,10,29.85,29.69,18,5,25,0.00
2013-10-1,79,66,57,48,36,26,68,35,20,29.75,29.67,18,10,27,0.00
2013-10-2,73,61,52,52,47,41,91,61,32,29.77,29.66,18,11,26,0.00
2013-10-3,70,59,50,49,37,28,90,46,22,29.76,29.64,21,8,24,0.00
2013-10-4,67,59,52,31,11,5,40,15,11,30.01,29.75,28,19,41,0.00
2013-10-5,70,63,55,17,14,9,22,15,10,30.10,29.99,29,18,39,0.00
2013-10-6,77,64,48,17,11,6,22,13,8,30.06,29.85,17,8,23,0.00
2013-10-7,79,66,56,22,12,7,23,13,8,29.87,29.71,18,7,25,0.00
2013-10-8,70,58,48,48,31,11,96,42,13,29.74,29.55,24,11,29,0.00
2013-10-9,51,46,39,47,39,33,97,77,62,29.67,29.48,26,13,40,0.11
2013-10-10,58,46,35,41,37,32,93,74,47,29.91,29.67,17,8,24,0.00
2013-10-11,70,54,39,40,35,31,94,53,25,29.93,29.81,14,4,20,0.00
2013-10-12,70,58,49,38,32,25,56,38,18,29.84,29.71,20,7,24,0.00
2013-10-13,63,52,44,42,38,28,81,58,34,29.92,29.68,18,8,28,0.00
2013-10-14,68,57,44,38,29,21,69,39,19,30.02,29.86,20,10,29,0.00
2013-10-15,69,59,46,26,21,16,36,24,17,29.90,29.82,20,10,25,0.00
2013-10-16,65,55,47,19,16,14,28,21,15,29.97,29.86,18,6,24,0.00
2013-10-17,75,60,50,27,22,13,34,23,14,29.96,29.77,13,2,21,0.00
2013-10-18,75,63,52,25,19,12,30,20,10,29.94,29.82,18,7,24,0.00
2013-10-19,76,62,50,24,16,11,29,17,10,29.94,29.85,13,4,16,0.00
2013-10-20,79,64,52,39,21,11,45,22,8,29.86,29.72,13,4,17,0.00
2013-10-21,78,63,51,25,17,10,31,17,9,29.86,29.76,14,4,20,0.00
2013-10-22,77,64,54,20,15,11,20,15,11,29.90,29.76,15,4,17,0.00
2013-10-23,77,62,51,41,24,16,62,26,11,29.81,29.68,14,4,22,0.00
2013-10-24,77,62,48,46,27,17,67,31,11,29.89,29.73,13,2,17,0.00
2013-10-25,78,65,54,32,21,15,28,20,10,29.96,29.84,12,2,14,0.00
2013-10-26,77,66,56,26,20,17,28,18,12,29.98,29.84,13,3,17,0.00
2013-10-27,76,64,53,42,23,16,58,22,12,29.85,29.60,21,7,31,0.00
2013-10-28,53,47,42,40,36,33,89,64,46,29.75,29.55,28,17,40,0.02
2013-10-29,53,44,39,41,37,32,95,76,46,29.89,29.75,16,9,24,0.00
2013-10-30,58,47,37,38,30,24,95,54,28,29.99,29.88,14,5,20,0.00
2013-10-31,65,52,41,32,24,16,61,37,16,30.05,29.94,15,8,21,0.00
2013-11-1,70,57,45,23,20,16,34,24,14,30.07,29.91,15,9,20,0.00
2013-11-2,71,58,47,26,23,19,37,26,16,29.92,29.72,15,7,23,0.00
2013-11-3,65,54,45,46,33,24,95,50,27,29.76,29.64,17,8,24,0.00
2013-11-4,60,50,41,45,33,22,97,59,25,29.86,29.61,13,5,22,0.00
2013-11-5,57,51,41,25,12,1,51,22,11,30.09,29.86,25,16,37,0.00
2013-11-6,65,52,38,10,4,0,23,15,9,30.21,30.08,18,11,28,0.00
2013-11-7,66,55,46,16,11,2,22,17,14,30.10,29.92,14,6,17,0.00
2013-11-8,73,60,49,24,15,6,28,17,9,29.95,29.78,14,4,20,0.00
2013-11-9,70,58,47,23,16,8,32,20,10,29.97,29.81,9,2,13,0.00
2013-11-10,67,57,48,18,14,9,28,18,14,30.05,29.90,9,5,13,0.00
2013-11-11,70,58,47,22,17,13,26,20,15,30.04,29.93,14,7,18,0.00
2013-11-12,67,59,53,19,16,14,23,19,14,30.10,30.00,12,7,14,0.00
2013-11-13,72,61,51,18,16,14,23,17,12,30.03,29.86,14,8,18,0.00
2013-11-14,75,63,52,23,21,16,30,20,13,29.90,29.53,20,8,28,0.00
2013-11-15,65,54,47,47,35,20,93,53,19,29.59,29.46,20,10,29,0.00
2013-11-16,54,49,43,45,40,37,94,73,55,29.78,29.56,25,14,33,0.00
2013-11-17,59,47,38,42,38,32,98,72,39,30.00,29.78,10,4,16,0.00
2013-11-18,61,50,42,47,38,32,96,67,44,30.04,29.88,17,6,24,0.00
2013-11-19,57,48,42,47,43,39,100,84,52,29.94,29.80,16,11,23,0.00
2013-11-20,58,49,45,48,45,41,100,86,56,29.83,29.68,18,12,28,0.00
2013-11-21,54,47,40,51,45,39,100,94,62,29.84,29.66,13,5,20,0.66
2013-11-22,39,36,33,39,36,33,100,100,100,29.97,29.81,22,14,31,0.52
2013-11-23,41,39,36,39,36,33,100,91,74,30.06,29.95,18,10,24,0.06
2013-11-24,50,43,36,41,36,32,99,79,59,30.14,30.03,15,7,20,0.00
2013-11-25,57,46,38,41,35,30,82,65,49,30.21,30.09,14,7,21,0.00
2013-11-26,56,48,41,41,35,31,75,61,45,30.18,30.01,15,9,20,0.00
2013-11-27,53,47,41,38,36,32,74,66,52,30.01,29.83,13,6,18,0.00
2013-11-28,50,44,40,36,33,31,72,65,53,29.99,29.82,10,4,14,0.00
2013-11-29,50,46,42,42,36,33,84,71,56,30.14,29.98,14,6,18,0.02
2013-11-30,58,49,42,39,34,29,81,58,40,30.15,30.03,14,7,18,0.00
2013-12-1,60,49,40,35,29,21,63,47,29,30.21,30.08,14,7,20,0.00
2013-12-2,68,56,44,31,23,17,50,30,15,30.10,29.74,13,6,18,0.00
2013-12-3,59,50,40,44,32,22,85,51,32,29.73,29.52,23,12,32,0.00
2013-12-4,41,35,28,36,16,10,83,46,28,29.89,29.57,14,5,20,0.00
2013-12-5,40,32,25,23,14,10,79,47,30,30.03,29.87,8,2,13,0.00
2013-12-6,45,35,27,34,27,22,95,73,42,30.07,29.95,18,8,28,0.00
2013-12-7,44,36,24,37,27,14,98,73,48,30.02,29.83,28,13,44,0.00
2013-12-8,36,29,24,17,12,8,65,50,37,30.18,30.01,12,5,18,0.00
2013-12-9,39,32,24,10,-4,-13,55,23,12,30.38,30.17,30,17,40,0.00
2013-12-10,42,31,21,2,-2,-7,31,23,18,30.35,30.16,17,11,26,0.00
2013-12-11,46,38,28,10,5,0,31,25,19,30.25,30.14,16,10,22,0.00
2013-12-12,51,42,34,13,9,6,32,26,20,30.20,30.05,13,6,18,0.00
2013-12-13,58,47,36,19,11,7,48,24,14,30.19,30.00,21,5,28,0.00
2013-12-14,56,51,47,16,13,7,27,22,15,30.28,30.12,29,20,36,0.00
2013-12-15,56,48,38,20,16,13,38,29,23,30.28,30.15,17,11,22,0.00
2013-12-16,59,51,42,22,18,15,36,27,21,30.20,30.09,16,11,21,0.00
2013-12-17,61,54,46,22,20,16,31,26,19,30.14,29.93,14,9,20,0.00
2013-12-18,63,54,43,45,26,19,98,40,21,29.93,29.59,21,7,27,0.00
2013-12-19,48,41,37,43,35,32,98,79,56,29.71,29.52,23,11,35,0.01
2013-12-20,47,40,32,34,22,8,87,51,29,29.87,29.70,14,6,20,0.00
2013-12-21,57,45,36,36,26,6,77,48,25,29.95,29.76,13,4,18,0.00
2013-12-22,55,46,38,31,29,27,66,51,37,30.21,29.93,9,6,13,0.00
2013-12-23,58,47,38,29,26,24,58,45,28,30.31,30.19,18,10,23,0.00
2013-12-24,61,51,40,31,27,20,58,41,23,30.22,30.09,21,11,29,0.00
2013-12-25,58,54,44,23,15,1,44,23,11,30.20,30.10,24,16,31,0.00
2013-12-26,60,48,39,16,8,-1,31,20,10,30.21,30.08,20,10,26,0.00
2013-12-27,59,50,43,12,8,-2,25,18,13,30.17,29.98,14,8,18,0.00
2013-12-28,69,56,48,15,6,-2,21,13,6,29.98,29.78,13,4,17,0.00
2013-12-29,56,50,42,12,4,-6,22,15,10,30.12,29.87,29,13,36,0.00
2013-12-30,56,47,38,10,5,-2,23,18,13,30.20,30.10,13,6,17,0.00
2013-12-31,64,50,41,13,8,4,23,18,13,30.14,29.97,10,4,12,0.00
2014-1-1,59,50,42,18,12,6,29,22,17,30.12,30.00,15,10,20,0.00
2014-1-2,59,51,42,21,18,14,35,27,21,30.09,29.96,13,8,17,0.00